sensor_id;sensor_type;location;lat;lon;timestamp;temperature;humidity
4354;DHT22;11018;51.258;6.806;2023-09-12T00:00:52;20.80;80.30
4354;DHT22;11018;51.258;6.806;2023-09-12T00:03:22;20.80;80.50
4354;DHT22;11018;51.258;6.806;2023-09-12T00:05:55;20.80;81.60
4354;DHT22;11018;51.258;6.806;2023-09-12T00:08:21;20.80;81.50
4354;DHT22;11018;51.258;6.806;2023-09-12T00:10:57;20.70;82.40
4354;DHT22;11018;51.258;6.806;2023-09-12T00:13:23;20.70;82.80
4354;DHT22;11018;51.258;6.806;2023-09-12T00:15:49;20.70;83.00
4354;DHT22;11018;51.258;6.806;2023-09-12T00:18:14;20.70;83.60
4354;DHT22;11018;51.258;6.806;2023-09-12T00:20:40;20.70;83.90
4354;DHT22;11018;51.258;6.806;2023-09-12T00:23:05;20.70;84.40
4354;DHT22;11018;51.258;6.806;2023-09-12T00:25:31;20.80;83.50
4354;DHT22;11018;51.258;6.806;2023-09-12T00:27:56;20.80;83.00
4354;DHT22;11018;51.258;6.806;2023-09-12T00:30:22;20.80;83.40
4354;DHT22;11018;51.258;6.806;2023-09-12T00:32:48;20.80;84.20
4354;DHT22;11018;51.258;6.806;2023-09-12T00:35:13;20.80;84.00
4354;DHT22;11018;51.258;6.806;2023-09-12T00:37:39;20.80;84.20
4354;DHT22;11018;51.258;6.806;2023-09-12T00:40:05;20.80;84.30
4354;DHT22;11018;51.258;6.806;2023-09-12T00:42:31;20.90;84.20
4354;DHT22;11018;51.258;6.806;2023-09-12T00:44:56;20.90;83.80
4354;DHT22;11018;51.258;6.806;2023-09-12T00:47:22;20.80;83.10
4354;DHT22;11018;51.258;6.806;2023-09-12T00:49:49;20.80;82.90
4354;DHT22;11018;51.258;6.806;2023-09-12T00:52:15;20.70;83.60
4354;DHT22;11018;51.258;6.806;2023-09-12T00:54:41;20.80;81.60
4354;DHT22;11018;51.258;6.806;2023-09-12T00:57:07;20.80;81.30
4354;DHT22;11018;51.258;6.806;2023-09-12T00:59:33;20.70;82.60
4354;DHT22;11018;51.258;6.806;2023-09-12T01:02:00;20.70;83.80
4354;DHT22;11018;51.258;6.806;2023-09-12T01:04:27;20.70;83.70
4354;DHT22;11018;51.258;6.806;2023-09-12T01:06:52;20.70;84.20
4354;DHT22;11018;51.258;6.806;2023-09-12T01:09:18;20.70;84.30
4354;DHT22;11018;51.258;6.806;2023-09-12T01:11:44;20.60;85.40
4354;DHT22;11018;51.258;6.806;2023-09-12T01:14:10;20.60;84.40
4354;DHT22;11018;51.258;6.806;2023-09-12T01:16:35;20.80;81.30
4354;DHT22;11018;51.258;6.806;2023-09-12T01:19:01;20.80;83.00
4354;DHT22;11018;51.258;6.806;2023-09-12T01:21:37;20.80;83.70
4354;DHT22;11018;51.258;6.806;2023-09-12T01:27:21;20.80;85.90
4354;DHT22;11018;51.258;6.806;2023-09-12T01:29:51;20.80;86.00
4354;DHT22;11018;51.258;6.806;2023-09-12T01:32:20;20.70;87.00
4354;DHT22;11018;51.258;6.806;2023-09-12T01:34:45;20.70;86.20
4354;DHT22;11018;51.258;6.806;2023-09-12T01:37:11;20.80;85.20
4354;DHT22;11018;51.258;6.806;2023-09-12T01:39:37;20.80;85.70
4354;DHT22;11018;51.258;6.806;2023-09-12T01:42:03;20.80;84.70
4354;DHT22;11018;51.258;6.806;2023-09-12T01:44:30;20.80;82.20
4354;DHT22;11018;51.258;6.806;2023-09-12T01:47:02;20.80;81.00
4354;DHT22;11018;51.258;6.806;2023-09-12T01:49:28;20.90;81.00
4354;DHT22;11018;51.258;6.806;2023-09-12T01:51:55;20.90;80.70
4354;DHT22;11018;51.258;6.806;2023-09-12T01:57:43;20.90;82.30
4354;DHT22;11018;51.258;6.806;2023-09-12T02:00:09;20.80;83.60
4354;DHT22;11018;51.258;6.806;2023-09-12T02:02:34;20.70;86.40
4354;DHT22;11018;51.258;6.806;2023-09-12T02:07:35;20.70;88.60
4354;DHT22;11018;51.258;6.806;2023-09-12T02:10:01;20.60;88.80
4354;DHT22;11018;51.258;6.806;2023-09-12T02:12:27;20.50;90.10
4354;DHT22;11018;51.258;6.806;2023-09-12T02:14:52;20.50;92.30
4354;DHT22;11018;51.258;6.806;2023-09-12T02:17:18;20.50;91.50
4354;DHT22;11018;51.258;6.806;2023-09-12T02:19:47;20.50;91.80
4354;DHT22;11018;51.258;6.806;2023-09-12T02:22:13;20.50;91.30
4354;DHT22;11018;51.258;6.806;2023-09-12T02:24:38;20.40;93.00
4354;DHT22;11018;51.258;6.806;2023-09-12T02:27:04;20.40;93.80
4354;DHT22;11018;51.258;6.806;2023-09-12T02:29:29;20.50;92.30
4354;DHT22;11018;51.258;6.806;2023-09-12T02:31:57;20.50;92.70
4354;DHT22;11018;51.258;6.806;2023-09-12T02:34:23;20.40;94.10
4354;DHT22;11018;51.258;6.806;2023-09-12T02:36:49;20.40;93.20
4354;DHT22;11018;51.258;6.806;2023-09-12T02:39:14;20.40;96.70
4354;DHT22;11018;51.258;6.806;2023-09-12T02:41:40;20.40;98.60
4354;DHT22;11018;51.258;6.806;2023-09-12T02:44:06;20.60;93.30
4354;DHT22;11018;51.258;6.806;2023-09-12T02:46:34;20.60;91.80
4354;DHT22;11018;51.258;6.806;2023-09-12T02:49:00;20.70;90.40
4354;DHT22;11018;51.258;6.806;2023-09-12T02:51:26;20.80;86.00
4354;DHT22;11018;51.258;6.806;2023-09-12T02:53:51;20.80;85.30
4354;DHT22;11018;51.258;6.806;2023-09-12T02:56:17;20.90;85.90
4354;DHT22;11018;51.258;6.806;2023-09-12T02:58:46;20.80;84.60
4354;DHT22;11018;51.258;6.806;2023-09-12T03:01:15;20.70;86.70
4354;DHT22;11018;51.258;6.806;2023-09-12T03:03:41;20.70;88.40
4354;DHT22;11018;51.258;6.806;2023-09-12T03:06:07;20.70;87.60
4354;DHT22;11018;51.258;6.806;2023-09-12T03:08:32;20.70;85.90
4354;DHT22;11018;51.258;6.806;2023-09-12T03:10:58;20.70;84.90
4354;DHT22;11018;51.258;6.806;2023-09-12T03:13:28;20.70;87.50
4354;DHT22;11018;51.258;6.806;2023-09-12T03:15:53;20.60;86.50
4354;DHT22;11018;51.258;6.806;2023-09-12T03:18:19;20.40;88.60
4354;DHT22;11018;51.258;6.806;2023-09-12T03:20:44;20.30;93.00
4354;DHT22;11018;51.258;6.806;2023-09-12T03:23:10;20.20;95.50
4354;DHT22;11018;51.258;6.806;2023-09-12T03:25:36;20.00;98.50
4354;DHT22;11018;51.258;6.806;2023-09-12T03:28:04;19.90;99.90
4354;DHT22;11018;51.258;6.806;2023-09-12T03:30:32;19.80;99.90
4354;DHT22;11018;51.258;6.806;2023-09-12T03:32:58;19.70;99.90
4354;DHT22;11018;51.258;6.806;2023-09-12T03:35:23;19.90;99.90
4354;DHT22;11018;51.258;6.806;2023-09-12T03:37:49;20.10;98.50
4354;DHT22;11018;51.258;6.806;2023-09-12T03:40:14;20.10;99.40
4354;DHT22;11018;51.258;6.806;2023-09-12T03:42:40;20.20;97.90
4354;DHT22;11018;51.258;6.806;2023-09-12T03:45:06;20.00;99.00
4354;DHT22;11018;51.258;6.806;2023-09-12T03:47:32;20.00;99.90
4354;DHT22;11018;51.258;6.806;2023-09-12T03:49:57;20.10;97.90
4354;DHT22;11018;51.258;6.806;2023-09-12T03:52:23;20.10;97.20
4354;DHT22;11018;51.258;6.806;2023-09-12T03:54:48;20.00;99.20
4354;DHT22;11018;51.258;6.806;2023-09-12T03:57:14;19.90;99.90
4354;DHT22;11018;51.258;6.806;2023-09-12T03:59:39;19.90;99.90
4354;DHT22;11018;51.258;6.806;2023-09-12T04:02:05;19.90;99.90
4354;DHT22;11018;51.258;6.806;2023-09-12T04:04:30;19.90;99.60
4354;DHT22;11018;51.258;6.806;2023-09-12T04:06:56;20.00;96.30
4354;DHT22;11018;51.258;6.806;2023-09-12T04:09:21;20.10;93.70
4354;DHT22;11018;51.258;6.806;2023-09-12T04:11:47;20.00;93.70
4354;DHT22;11018;51.258;6.806;2023-09-12T04:14:14;19.80;96.10
4354;DHT22;11018;51.258;6.806;2023-09-12T04:16:39;19.90;95.80
4354;DHT22;11018;51.258;6.806;2023-09-12T04:19:05;19.90;93.50
4354;DHT22;11018;51.258;6.806;2023-09-12T04:21:31;19.90;94.10
4354;DHT22;11018;51.258;6.806;2023-09-12T04:23:56;19.80;96.30
4354;DHT22;11018;51.258;6.806;2023-09-12T04:26:22;19.80;95.90
4354;DHT22;11018;51.258;6.806;2023-09-12T04:28:47;19.80;95.80
4354;DHT22;11018;51.258;6.806;2023-09-12T04:31:13;19.80;94.40
4354;DHT22;11018;51.258;6.806;2023-09-12T04:33:39;19.90;91.10
4354;DHT22;11018;51.258;6.806;2023-09-12T04:36:05;19.90;89.30
4354;DHT22;11018;51.258;6.806;2023-09-12T04:38:30;20.00;86.50
4354;DHT22;11018;51.258;6.806;2023-09-12T04:41:01;20.10;84.30
4354;DHT22;11018;51.258;6.806;2023-09-12T04:43:30;20.00;83.80
4354;DHT22;11018;51.258;6.806;2023-09-12T04:45:56;20.10;82.30
4354;DHT22;11018;51.258;6.806;2023-09-12T04:48:21;20.10;82.00
4354;DHT22;11018;51.258;6.806;2023-09-12T04:50:47;20.20;81.00
4354;DHT22;11018;51.258;6.806;2023-09-12T04:53:13;20.40;77.00
4354;DHT22;11018;51.258;6.806;2023-09-12T04:55:39;20.40;76.00
4354;DHT22;11018;51.258;6.806;2023-09-12T04:58:05;20.50;74.10
4354;DHT22;11018;51.258;6.806;2023-09-12T05:00:32;20.50;74.20
4354;DHT22;11018;51.258;6.806;2023-09-12T05:02:58;20.60;72.50
4354;DHT22;11018;51.258;6.806;2023-09-12T05:05:23;20.80;71.30
4354;DHT22;11018;51.258;6.806;2023-09-12T05:07:49;21.00;71.60
4354;DHT22;11018;51.258;6.806;2023-09-12T05:10:16;21.00;67.80
4354;DHT22;11018;51.258;6.806;2023-09-12T05:12:42;21.00;67.20
4354;DHT22;11018;51.258;6.806;2023-09-12T05:15:08;20.70;70.80
4354;DHT22;11018;51.258;6.806;2023-09-12T05:17:33;20.60;74.50
4354;DHT22;11018;51.258;6.806;2023-09-12T05:19:59;20.50;77.90
4354;DHT22;11018;51.258;6.806;2023-09-12T05:22:24;20.40;73.90
4354;DHT22;11018;51.258;6.806;2023-09-12T05:24:50;20.40;76.30
4354;DHT22;11018;51.258;6.806;2023-09-12T05:27:16;20.40;79.70
4354;DHT22;11018;51.258;6.806;2023-09-12T05:29:44;20.50;80.00
4354;DHT22;11018;51.258;6.806;2023-09-12T05:32:09;20.60;78.40
4354;DHT22;11018;51.258;6.806;2023-09-12T05:34:35;20.50;78.50
4354;DHT22;11018;51.258;6.806;2023-09-12T05:37:00;20.60;78.30
4354;DHT22;11018;51.258;6.806;2023-09-12T05:39:26;20.60;76.50
4354;DHT22;11018;51.258;6.806;2023-09-12T05:41:51;20.70;74.20
4354;DHT22;11018;51.258;6.806;2023-09-12T05:44:17;20.80;69.80
4354;DHT22;11018;51.258;6.806;2023-09-12T05:46:47;20.90;70.20
4354;DHT22;11018;51.258;6.806;2023-09-12T05:49:13;21.00;71.00
4354;DHT22;11018;51.258;6.806;2023-09-12T05:51:40;21.00;77.90
4354;DHT22;11018;51.258;6.806;2023-09-12T05:54:06;21.00;79.70
4354;DHT22;11018;51.258;6.806;2023-09-12T05:56:33;20.90;82.30
4354;DHT22;11018;51.258;6.806;2023-09-12T05:58:59;20.90;84.90
4354;DHT22;11018;51.258;6.806;2023-09-12T06:01:25;20.80;87.40
4354;DHT22;11018;51.258;6.806;2023-09-12T06:03:51;20.70;89.10
4354;DHT22;11018;51.258;6.806;2023-09-12T06:06:16;20.40;99.10
4354;DHT22;11018;51.258;6.806;2023-09-12T06:08:42;19.60;99.90
4354;DHT22;11018;51.258;6.806;2023-09-12T06:11:07;19.00;99.90
4354;DHT22;11018;51.258;6.806;2023-09-12T06:13:33;18.90;1.40
4354;DHT22;11018;51.258;6.806;2023-09-12T06:16:01;18.90;1.40
4354;DHT22;11018;51.258;6.806;2023-09-12T06:18:26;19.00;1.40
4354;DHT22;11018;51.258;6.806;2023-09-12T06:20:54;19.00;1.40
4354;DHT22;11018;51.258;6.806;2023-09-12T06:23:19;18.90;1.40
4354;DHT22;11018;51.258;6.806;2023-09-12T06:25:45;18.90;1.40
4354;DHT22;11018;51.258;6.806;2023-09-12T06:28:10;18.80;1.40
4354;DHT22;11018;51.258;6.806;2023-09-12T06:30:36;18.80;1.40
4354;DHT22;11018;51.258;6.806;2023-09-12T06:33:02;18.90;1.40
4354;DHT22;11018;51.258;6.806;2023-09-12T06:35:27;19.10;1.40
4354;DHT22;11018;51.258;6.806;2023-09-12T06:37:54;19.10;1.40
4354;DHT22;11018;51.258;6.806;2023-09-12T06:40:21;19.00;1.40
4354;DHT22;11018;51.258;6.806;2023-09-12T06:42:47;18.90;1.40
4354;DHT22;11018;51.258;6.806;2023-09-12T06:45:12;19.10;1.40
4354;DHT22;11018;51.258;6.806;2023-09-12T06:47:38;18.90;1.40
4354;DHT22;11018;51.258;6.806;2023-09-12T06:50:04;18.80;1.40
4354;DHT22;11018;51.258;6.806;2023-09-12T06:52:29;18.70;1.40
4354;DHT22;11018;51.258;6.806;2023-09-12T06:54:55;18.80;1.40
4354;DHT22;11018;51.258;6.806;2023-09-12T06:57:20;18.90;1.40
4354;DHT22;11018;51.258;6.806;2023-09-12T06:59:46;18.80;1.40
4354;DHT22;11018;51.258;6.806;2023-09-12T07:02:14;18.80;1.40
4354;DHT22;11018;51.258;6.806;2023-09-12T07:04:40;18.90;1.40
4354;DHT22;11018;51.258;6.806;2023-09-12T07:07:05;18.90;1.40
4354;DHT22;11018;51.258;6.806;2023-09-12T07:09:31;19.10;1.40
4354;DHT22;11018;51.258;6.806;2023-09-12T07:11:56;19.30;1.40
4354;DHT22;11018;51.258;6.806;2023-09-12T07:14:22;19.30;1.40
4354;DHT22;11018;51.258;6.806;2023-09-12T07:16:49;19.30;1.40
4354;DHT22;11018;51.258;6.806;2023-09-12T07:19:14;19.10;1.40
4354;DHT22;11018;51.258;6.806;2023-09-12T07:21:40;19.20;1.40
4354;DHT22;11018;51.258;6.806;2023-09-12T07:24:06;19.10;1.40
4354;DHT22;11018;51.258;6.806;2023-09-12T07:26:32;19.10;1.40
4354;DHT22;11018;51.258;6.806;2023-09-12T07:28:57;19.30;1.40
4354;DHT22;11018;51.258;6.806;2023-09-12T07:31:23;19.30;1.40
4354;DHT22;11018;51.258;6.806;2023-09-12T07:33:49;19.30;1.40
4354;DHT22;11018;51.258;6.806;2023-09-12T07:36:14;19.30;1.40
4354;DHT22;11018;51.258;6.806;2023-09-12T07:38:40;19.40;1.40
4354;DHT22;11018;51.258;6.806;2023-09-12T07:41:07;19.20;1.40
4354;DHT22;11018;51.258;6.806;2023-09-12T07:43:33;19.20;1.40
4354;DHT22;11018;51.258;6.806;2023-09-12T07:45:59;19.30;1.40
4354;DHT22;11018;51.258;6.806;2023-09-12T07:48:24;19.50;1.40
4354;DHT22;11018;51.258;6.806;2023-09-12T07:50:50;19.50;1.40
4354;DHT22;11018;51.258;6.806;2023-09-12T07:53:17;19.50;1.40
4354;DHT22;11018;51.258;6.806;2023-09-12T07:55:42;19.30;1.40
4354;DHT22;11018;51.258;6.806;2023-09-12T07:58:13;19.40;1.40
4354;DHT22;11018;51.258;6.806;2023-09-12T08:00:38;19.60;1.40
4354;DHT22;11018;51.258;6.806;2023-09-12T08:03:04;19.60;1.40
4354;DHT22;11018;51.258;6.806;2023-09-12T08:05:30;19.40;1.40
4354;DHT22;11018;51.258;6.806;2023-09-12T08:07:55;19.50;1.40
4354;DHT22;11018;51.258;6.806;2023-09-12T08:10:21;19.70;1.40
4354;DHT22;11018;51.258;6.806;2023-09-12T08:12:46;19.70;1.40
4354;DHT22;11018;51.258;6.806;2023-09-12T08:15:12;19.50;1.40
4354;DHT22;11018;51.258;6.806;2023-09-12T08:17:38;19.30;1.40
4354;DHT22;11018;51.258;6.806;2023-09-12T08:20:05;19.20;1.40
4354;DHT22;11018;51.258;6.806;2023-09-12T08:22:31;19.30;1.40
4354;DHT22;11018;51.258;6.806;2023-09-12T08:24:57;19.40;1.40
4354;DHT22;11018;51.258;6.806;2023-09-12T08:27:22;19.30;1.40
4354;DHT22;11018;51.258;6.806;2023-09-12T08:29:49;19.30;1.40
4354;DHT22;11018;51.258;6.806;2023-09-12T08:32:14;19.40;1.40
4354;DHT22;11018;51.258;6.806;2023-09-12T08:34:40;19.40;1.40
4354;DHT22;11018;51.258;6.806;2023-09-12T08:37:05;19.60;1.40
4354;DHT22;11018;51.258;6.806;2023-09-12T08:39:44;19.70;1.40
4354;DHT22;11018;51.258;6.806;2023-09-12T08:42:13;19.80;1.40
4354;DHT22;11018;51.258;6.806;2023-09-12T08:44:40;19.90;1.40
4354;DHT22;11018;51.258;6.806;2023-09-12T08:47:08;20.00;1.40
4354;DHT22;11018;51.258;6.806;2023-09-12T08:49:35;20.10;1.40
4354;DHT22;11018;51.258;6.806;2023-09-12T08:52:01;20.10;1.40
4354;DHT22;11018;51.258;6.806;2023-09-12T08:54:28;20.00;1.40
4354;DHT22;11018;51.258;6.806;2023-09-12T08:56:53;19.90;1.40
4354;DHT22;11018;51.258;6.806;2023-09-12T08:59:20;19.80;1.40
4354;DHT22;11018;51.258;6.806;2023-09-12T09:01:46;19.90;1.40
4354;DHT22;11018;51.258;6.806;2023-09-12T09:04:12;19.80;1.40
4354;DHT22;11018;51.258;6.806;2023-09-12T09:06:40;19.90;1.40
4354;DHT22;11018;51.258;6.806;2023-09-12T09:09:07;20.00;1.40
4354;DHT22;11018;51.258;6.806;2023-09-12T09:11:34;20.00;1.40
4354;DHT22;11018;51.258;6.806;2023-09-12T09:14:03;20.10;1.40
4354;DHT22;11018;51.258;6.806;2023-09-12T09:16:28;20.20;1.40
4354;DHT22;11018;51.258;6.806;2023-09-12T09:18:56;19.70;99.90
4354;DHT22;11018;51.258;6.806;2023-09-12T09:21:31;20.00;99.90
4354;DHT22;11018;51.258;6.806;2023-09-12T09:24:10;20.30;99.90
4354;DHT22;11018;51.258;6.806;2023-09-12T09:26:47;20.40;99.90
4354;DHT22;11018;51.258;6.806;2023-09-12T09:29:14;20.60;99.90
4354;DHT22;11018;51.258;6.806;2023-09-12T09:31:41;20.30;99.90
4354;DHT22;11018;51.258;6.806;2023-09-12T09:34:15;20.30;99.90
4354;DHT22;11018;51.258;6.806;2023-09-12T09:36:41;20.50;99.90
4354;DHT22;11018;51.258;6.806;2023-09-12T09:39:08;20.50;99.90
4354;DHT22;11018;51.258;6.806;2023-09-12T09:41:34;20.50;87.30
4354;DHT22;11018;51.258;6.806;2023-09-12T09:44:00;20.70;79.30
4354;DHT22;11018;51.258;6.806;2023-09-12T09:46:26;20.90;87.90
4354;DHT22;11018;51.258;6.806;2023-09-12T09:48:52;21.20;86.30
4354;DHT22;11018;51.258;6.806;2023-09-12T09:51:18;21.40;89.90
4354;DHT22;11018;51.258;6.806;2023-09-12T09:53:44;21.40;73.30
4354;DHT22;11018;51.258;6.806;2023-09-12T09:56:11;21.60;79.20
4354;DHT22;11018;51.258;6.806;2023-09-12T09:58:50;21.70;79.80
4354;DHT22;11018;51.258;6.806;2023-09-12T10:01:22;21.80;77.90
4354;DHT22;11018;51.258;6.806;2023-09-12T10:03:49;21.90;70.20
4354;DHT22;11018;51.258;6.806;2023-09-12T10:06:19;22.20;73.80
4354;DHT22;11018;51.258;6.806;2023-09-12T10:08:50;22.40;76.70
4354;DHT22;11018;51.258;6.806;2023-09-12T10:11:18;22.60;71.20
4354;DHT22;11018;51.258;6.806;2023-09-12T10:13:53;22.70;72.00
4354;DHT22;11018;51.258;6.806;2023-09-12T10:16:22;22.80;64.10
4354;DHT22;11018;51.258;6.806;2023-09-12T10:21:29;22.90;63.30
4354;DHT22;11018;51.258;6.806;2023-09-12T10:23:58;22.70;52.80
4354;DHT22;11018;51.258;6.806;2023-09-12T10:26:24;22.80;57.20
4354;DHT22;11018;51.258;6.806;2023-09-12T10:28:50;22.90;57.00
4354;DHT22;11018;51.258;6.806;2023-09-12T10:31:17;22.90;50.90
4354;DHT22;11018;51.258;6.806;2023-09-12T10:33:43;23.10;54.70
4354;DHT22;11018;51.258;6.806;2023-09-12T10:36:11;23.30;53.10
4354;DHT22;11018;51.258;6.806;2023-09-12T10:38:48;23.50;47.80
4354;DHT22;11018;51.258;6.806;2023-09-12T10:41:15;23.80;49.70
4354;DHT22;11018;51.258;6.806;2023-09-12T10:43:42;23.80;44.30
4354;DHT22;11018;51.258;6.806;2023-09-12T10:46:08;24.00;46.10
4354;DHT22;11018;51.258;6.806;2023-09-12T10:48:35;24.30;43.30
4354;DHT22;11018;51.258;6.806;2023-09-12T10:51:02;24.20;38.80
4354;DHT22;11018;51.258;6.806;2023-09-12T10:53:32;24.10;40.20
4354;DHT22;11018;51.258;6.806;2023-09-12T10:56:18;24.10;39.70
4354;DHT22;11018;51.258;6.806;2023-09-12T11:01:44;24.20;41.60
4354;DHT22;11018;51.258;6.806;2023-09-12T11:06:49;24.30;40.00
4354;DHT22;11018;51.258;6.806;2023-09-12T11:09:21;24.40;41.00
4354;DHT22;11018;51.258;6.806;2023-09-12T11:11:54;24.50;38.60
4354;DHT22;11018;51.258;6.806;2023-09-12T11:14:20;24.60;38.40
4354;DHT22;11018;51.258;6.806;2023-09-12T11:17:20;24.70;39.50
4354;DHT22;11018;51.258;6.806;2023-09-12T11:19:48;25.00;39.20
4354;DHT22;11018;51.258;6.806;2023-09-12T11:22:25;25.40;37.00
4354;DHT22;11018;51.258;6.806;2023-09-12T11:24:51;25.40;35.60
4354;DHT22;11018;51.258;6.806;2023-09-12T11:27:17;25.40;35.80
4354;DHT22;11018;51.258;6.806;2023-09-12T11:29:43;25.40;35.30
4354;DHT22;11018;51.258;6.806;2023-09-12T11:32:09;25.40;35.00
4354;DHT22;11018;51.258;6.806;2023-09-12T11:34:42;25.40;35.70
4354;DHT22;11018;51.258;6.806;2023-09-12T11:37:08;25.40;35.80
4354;DHT22;11018;51.258;6.806;2023-09-12T11:39:36;25.30;35.80
4354;DHT22;11018;51.258;6.806;2023-09-12T11:42:03;25.10;36.70
4354;DHT22;11018;51.258;6.806;2023-09-12T11:44:31;25.00;37.20
4354;DHT22;11018;51.258;6.806;2023-09-12T11:47:00;24.80;36.40
4354;DHT22;11018;51.258;6.806;2023-09-12T11:49:41;24.90;37.70
4354;DHT22;11018;51.258;6.806;2023-09-12T11:52:11;25.10;35.80
4354;DHT22;11018;51.258;6.806;2023-09-12T11:54:42;25.20;35.10
4354;DHT22;11018;51.258;6.806;2023-09-12T11:57:09;25.40;33.80
4354;DHT22;11018;51.258;6.806;2023-09-12T11:59:44;25.40;32.70
4354;DHT22;11018;51.258;6.806;2023-09-12T12:02:17;25.30;33.40
4354;DHT22;11018;51.258;6.806;2023-09-12T12:04:44;25.30;34.60
4354;DHT22;11018;51.258;6.806;2023-09-12T12:07:10;25.40;34.50
4354;DHT22;11018;51.258;6.806;2023-09-12T12:09:36;25.60;33.70
4354;DHT22;11018;51.258;6.806;2023-09-12T12:12:12;25.90;32.90
4354;DHT22;11018;51.258;6.806;2023-09-12T12:14:39;26.10;30.70
4354;DHT22;11018;51.258;6.806;2023-09-12T12:17:15;26.20;30.20
4354;DHT22;11018;51.258;6.806;2023-09-12T12:19:45;26.10;28.90
4354;DHT22;11018;51.258;6.806;2023-09-12T12:22:11;26.30;29.00
4354;DHT22;11018;51.258;6.806;2023-09-12T12:24:45;26.60;29.80
4354;DHT22;11018;51.258;6.806;2023-09-12T12:27:11;27.10;28.00
4354;DHT22;11018;51.258;6.806;2023-09-12T12:29:37;27.50;26.90
4354;DHT22;11018;51.258;6.806;2023-09-12T12:32:05;28.00;24.00
4354;DHT22;11018;51.258;6.806;2023-09-12T12:34:31;28.20;23.70
4354;DHT22;11018;51.258;6.806;2023-09-12T12:36:57;27.90;22.60
4354;DHT22;11018;51.258;6.806;2023-09-12T12:39:23;27.20;25.10
4354;DHT22;11018;51.258;6.806;2023-09-12T12:41:52;27.00;26.90
4354;DHT22;11018;51.258;6.806;2023-09-12T12:44:18;26.80;27.30
4354;DHT22;11018;51.258;6.806;2023-09-12T12:46:53;26.90;28.10
4354;DHT22;11018;51.258;6.806;2023-09-12T12:49:19;27.30;26.00
4354;DHT22;11018;51.258;6.806;2023-09-12T12:51:47;27.80;25.70
4354;DHT22;11018;51.258;6.806;2023-09-12T12:54:13;28.10;25.30
4354;DHT22;11018;51.258;6.806;2023-09-12T12:56:39;28.20;25.00
4354;DHT22;11018;51.258;6.806;2023-09-12T12:59:07;27.70;25.30
4354;DHT22;11018;51.258;6.806;2023-09-12T13:01:37;27.10;26.20
4354;DHT22;11018;51.258;6.806;2023-09-12T13:04:10;26.90;26.30
4354;DHT22;11018;51.258;6.806;2023-09-12T13:06:36;26.60;26.60
4354;DHT22;11018;51.258;6.806;2023-09-12T13:09:03;26.50;27.30
4354;DHT22;11018;51.258;6.806;2023-09-12T13:11:31;26.60;26.80
4354;DHT22;11018;51.258;6.806;2023-09-12T13:13:59;26.90;27.00
4354;DHT22;11018;51.258;6.806;2023-09-12T13:16:25;27.20;25.10
4354;DHT22;11018;51.258;6.806;2023-09-12T13:18:51;27.20;24.60
4354;DHT22;11018;51.258;6.806;2023-09-12T13:21:16;27.20;25.00
4354;DHT22;11018;51.258;6.806;2023-09-12T13:23:42;27.20;25.90
4354;DHT22;11018;51.258;6.806;2023-09-12T13:26:09;27.20;26.40
4354;DHT22;11018;51.258;6.806;2023-09-12T13:28:35;27.50;26.20
4354;DHT22;11018;51.258;6.806;2023-09-12T13:31:00;27.70;26.10
4354;DHT22;11018;51.258;6.806;2023-09-12T13:33:26;27.90;25.60
4354;DHT22;11018;51.258;6.806;2023-09-12T13:35:52;27.80;25.40
4354;DHT22;11018;51.258;6.806;2023-09-12T13:38:17;27.90;23.80
4354;DHT22;11018;51.258;6.806;2023-09-12T13:40:46;28.30;23.60
4354;DHT22;11018;51.258;6.806;2023-09-12T13:43:12;29.10;22.40
4354;DHT22;11018;51.258;6.806;2023-09-12T13:45:38;29.20;19.80
4354;DHT22;11018;51.258;6.806;2023-09-12T13:48:04;28.50;21.60
4354;DHT22;11018;51.258;6.806;2023-09-12T13:50:31;27.90;22.90
4354;DHT22;11018;51.258;6.806;2023-09-12T13:53:01;27.40;23.70
4354;DHT22;11018;51.258;6.806;2023-09-12T13:55:32;27.40;24.30
4354;DHT22;11018;51.258;6.806;2023-09-12T13:57:58;27.40;24.80
4354;DHT22;11018;51.258;6.806;2023-09-12T14:00:24;27.70;24.90
4354;DHT22;11018;51.258;6.806;2023-09-12T14:02:50;28.60;22.60
4354;DHT22;11018;51.258;6.806;2023-09-12T14:05:15;28.70;22.00
4354;DHT22;11018;51.258;6.806;2023-09-12T14:07:41;28.40;22.70
4354;DHT22;11018;51.258;6.806;2023-09-12T14:10:07;27.80;24.30
4354;DHT22;11018;51.258;6.806;2023-09-12T14:12:33;27.10;26.30
4354;DHT22;11018;51.258;6.806;2023-09-12T14:14:59;26.70;26.60
4354;DHT22;11018;51.258;6.806;2023-09-12T14:17:24;26.40;27.70
4354;DHT22;11018;51.258;6.806;2023-09-12T14:19:50;26.70;27.00
4354;DHT22;11018;51.258;6.806;2023-09-12T14:22:15;27.30;26.80
4354;DHT22;11018;51.258;6.806;2023-09-12T14:24:41;28.40;24.70
4354;DHT22;11018;51.258;6.806;2023-09-12T14:27:07;29.50;20.40
4354;DHT22;11018;51.258;6.806;2023-09-12T14:29:32;30.70;18.70
4354;DHT22;11018;51.258;6.806;2023-09-12T14:31:58;30.90;16.70
4354;DHT22;11018;51.258;6.806;2023-09-12T14:34:24;29.60;19.20
4354;DHT22;11018;51.258;6.806;2023-09-12T14:36:53;29.10;21.20
4354;DHT22;11018;51.258;6.806;2023-09-12T14:39:19;28.80;20.20
4354;DHT22;11018;51.258;6.806;2023-09-12T14:41:45;29.00;20.20
4354;DHT22;11018;51.258;6.806;2023-09-12T14:44:15;29.20;19.90
4354;DHT22;11018;51.258;6.806;2023-09-12T14:46:40;29.60;18.40
4354;DHT22;11018;51.258;6.806;2023-09-12T14:49:06;29.60;18.50
4354;DHT22;11018;51.258;6.806;2023-09-12T14:51:31;29.30;19.30
4354;DHT22;11018;51.258;6.806;2023-09-12T14:53:57;29.20;19.70
4354;DHT22;11018;51.258;6.806;2023-09-12T14:56:22;29.20;19.70
4354;DHT22;11018;51.258;6.806;2023-09-12T14:58:49;28.60;21.60
4354;DHT22;11018;51.258;6.806;2023-09-12T15:01:14;28.80;20.00
4354;DHT22;11018;51.258;6.806;2023-09-12T15:03:40;29.20;19.90
4354;DHT22;11018;51.258;6.806;2023-09-12T15:06:05;29.80;18.80
4354;DHT22;11018;51.258;6.806;2023-09-12T15:08:32;29.20;20.10
4354;DHT22;11018;51.258;6.806;2023-09-12T15:11:01;28.40;22.10
4354;DHT22;11018;51.258;6.806;2023-09-12T15:13:27;28.50;21.80
4354;DHT22;11018;51.258;6.806;2023-09-12T15:15:52;28.40;22.60
4354;DHT22;11018;51.258;6.806;2023-09-12T15:18:18;28.30;22.90
4354;DHT22;11018;51.258;6.806;2023-09-12T15:20:43;27.50;23.30
4354;DHT22;11018;51.258;6.806;2023-09-12T15:23:09;27.10;24.70
4354;DHT22;11018;51.258;6.806;2023-09-12T15:25:34;26.70;25.20
4354;DHT22;11018;51.258;6.806;2023-09-12T15:28:02;26.50;25.20
4354;DHT22;11018;51.258;6.806;2023-09-12T15:30:27;26.40;26.50
4354;DHT22;11018;51.258;6.806;2023-09-12T15:32:53;26.40;26.80
4354;DHT22;11018;51.258;6.806;2023-09-12T15:35:19;26.30;27.70
4354;DHT22;11018;51.258;6.806;2023-09-12T15:37:44;26.20;28.30
4354;DHT22;11018;51.258;6.806;2023-09-12T15:40:10;26.20;28.80
4354;DHT22;11018;51.258;6.806;2023-09-12T15:42:36;26.30;28.60
4354;DHT22;11018;51.258;6.806;2023-09-12T15:45:01;26.20;28.20
4354;DHT22;11018;51.258;6.806;2023-09-12T15:47:29;26.30;28.60
4354;DHT22;11018;51.258;6.806;2023-09-12T15:49:55;26.20;29.30
4354;DHT22;11018;51.258;6.806;2023-09-12T15:52:20;26.10;29.60
4354;DHT22;11018;51.258;6.806;2023-09-12T15:54:46;26.00;29.50
4354;DHT22;11018;51.258;6.806;2023-09-12T15:57:11;25.80;29.70
4354;DHT22;11018;51.258;6.806;2023-09-12T15:59:39;25.60;30.50
4354;DHT22;11018;51.258;6.806;2023-09-12T16:02:04;25.60;30.80
4354;DHT22;11018;51.258;6.806;2023-09-12T16:04:30;25.60;30.90